createdAt,value
2023-05-21T00:00:30.346Z,100.00
2023-05-21T00:03:19.209Z,100.00
2023-05-21T00:05:50.576Z,100.00
2023-05-21T00:08:19.532Z,100.00
2023-05-21T00:10:49.659Z,100.00
2023-05-21T00:13:18.551Z,100.00
2023-05-21T00:15:47.632Z,100.00
2023-05-21T00:18:17.074Z,100.00
2023-05-21T00:20:46.332Z,100.00
2023-05-21T00:23:18.617Z,100.00
2023-05-21T00:25:47.500Z,100.00
2023-05-21T00:28:16.637Z,100.00
2023-05-21T00:30:46.514Z,100.00
2023-05-21T00:33:15.598Z,100.00
2023-05-21T00:35:45.632Z,100.00
2023-05-21T00:38:14.929Z,100.00
2023-05-21T00:40:43.912Z,100.00
2023-05-21T00:43:14.746Z,100.00
2023-05-21T00:45:45.219Z,100.00
2023-05-21T00:48:15.189Z,100.00
2023-05-21T00:50:45.517Z,100.00
2023-05-21T00:53:15.804Z,100.00
2023-05-21T00:55:44.701Z,100.00
2023-05-21T00:58:14.655Z,100.00
2023-05-21T01:00:43.349Z,100.00
2023-05-21T01:03:13.162Z,100.00
2023-05-21T01:05:45.534Z,100.00
2023-05-21T01:08:15.525Z,100.00
2023-05-21T01:10:45.053Z,100.00
2023-05-21T01:13:16.962Z,100.00
2023-05-21T01:15:47.329Z,100.00
2023-05-21T01:18:16.832Z,100.00
2023-05-21T01:20:48.542Z,100.00
2023-05-21T01:23:18.730Z,100.00
2023-05-21T01:25:48.004Z,100.00
2023-05-21T01:28:16.798Z,100.00
2023-05-21T01:30:45.690Z,100.00
2023-05-21T01:33:19.122Z,100.00
2023-05-21T01:36:16.348Z,100.00
2023-05-21T01:39:04.426Z,100.00
2023-05-21T01:41:38.118Z,100.00
2023-05-21T01:44:07.594Z,100.00
2023-05-21T01:46:37.214Z,100.00
2023-05-21T01:49:07.309Z,100.00
2023-05-21T01:51:36.937Z,100.00
2023-05-21T01:54:06.616Z,100.00
2023-05-21T01:56:37.783Z,100.00
2023-05-21T01:59:06.669Z,100.00
2023-05-21T02:01:35.619Z,100.00
2023-05-21T02:04:05.381Z,100.00
2023-05-21T02:06:36.390Z,100.00
2023-05-21T02:09:05.484Z,100.00
2023-05-21T02:11:36.509Z,100.00
2023-05-21T02:14:05.957Z,100.00
2023-05-21T02:16:35.394Z,100.00
2023-05-21T02:19:05.642Z,100.00
2023-05-21T02:21:34.479Z,100.00
2023-05-21T02:24:03.652Z,100.00
2023-05-21T02:26:32.769Z,100.00
2023-05-21T02:29:01.638Z,100.00
2023-05-21T02:31:30.536Z,100.00
2023-05-21T02:33:59.458Z,100.00
2023-05-21T02:36:29.318Z,100.00
2023-05-21T02:38:58.435Z,100.00
2023-05-21T02:41:27.647Z,100.00
2023-05-21T02:43:56.825Z,100.00
2023-05-21T02:46:26.117Z,100.00
2023-05-21T02:48:55.536Z,100.00
2023-05-21T02:51:24.726Z,100.00
2023-05-21T02:53:54.154Z,100.00
2023-05-21T02:56:23.033Z,100.00
2023-05-21T02:58:52.840Z,100.00
2023-05-21T03:01:21.667Z,100.00
2023-05-21T03:03:50.852Z,100.00
2023-05-21T03:06:20.179Z,100.00
2023-05-21T03:08:49.108Z,100.00
2023-05-21T03:11:19.960Z,100.00
2023-05-21T03:13:49.040Z,100.00
2023-05-21T03:16:18.287Z,100.00
2023-05-21T03:18:47.892Z,100.00
2023-05-21T03:21:16.850Z,100.00
2023-05-21T03:23:45.742Z,100.00
2023-05-21T03:26:14.835Z,100.00
2023-05-21T03:28:44.424Z,100.00
2023-05-21T03:31:13.217Z,100.00
2023-05-21T03:33:54.390Z,100.00
2023-05-21T03:36:25.952Z,100.00
2023-05-21T03:38:54.771Z,100.00
2023-05-21T03:41:24.356Z,100.00
2023-05-21T03:43:57.255Z,100.00
2023-05-21T03:46:30.297Z,100.00
2023-05-21T03:49:09.654Z,100.00
2023-05-21T03:51:40.191Z,100.00
2023-05-21T03:54:09.401Z,100.00
2023-05-21T03:56:38.700Z,100.00
2023-05-21T03:59:07.391Z,100.00
2023-05-21T04:01:36.773Z,100.00
2023-05-21T04:04:06.713Z,100.00
2023-05-21T04:06:35.599Z,100.00
2023-05-21T04:09:05.606Z,100.00
2023-05-21T04:11:34.499Z,100.00
2023-05-21T04:14:03.497Z,100.00
2023-05-21T04:16:35.532Z,100.00
2023-05-21T04:19:07.124Z,100.00
2023-05-21T04:21:36.914Z,100.00
2023-05-21T04:24:06.136Z,100.00
2023-05-21T04:27:01.817Z,100.00
2023-05-21T04:29:31.952Z,100.00
2023-05-21T04:32:01.072Z,100.00
2023-05-21T04:34:30.354Z,100.00
2023-05-21T04:36:59.133Z,100.00
2023-05-21T04:39:29.549Z,100.00
2023-05-21T04:41:58.454Z,100.00
2023-05-21T04:44:28.373Z,100.00
2023-05-21T04:46:58.002Z,100.00
2023-05-21T04:49:27.380Z,100.00
2023-05-21T04:51:57.206Z,100.00
2023-05-21T04:54:26.198Z,100.00
2023-05-21T04:56:55.575Z,100.00
2023-05-21T04:59:24.672Z,100.00
2023-05-21T05:01:54.593Z,100.00
2023-05-21T05:04:24.019Z,100.00
2023-05-21T05:06:53.101Z,100.00
2023-05-21T05:09:25.366Z,100.00
2023-05-21T05:11:54.783Z,99.72
2023-05-21T05:14:23.549Z,99.48
2023-05-21T05:16:52.535Z,99.06
2023-05-21T05:19:21.784Z,98.67
2023-05-21T05:21:50.835Z,97.87
2023-05-21T05:24:20.230Z,97.01
2023-05-21T05:26:49.756Z,95.97
2023-05-21T05:29:18.833Z,95.47
2023-05-21T05:31:48.688Z,94.82
2023-05-21T05:34:17.685Z,93.72
2023-05-21T05:36:46.734Z,93.04
2023-05-21T05:39:15.625Z,92.31
2023-05-21T05:41:44.624Z,91.25
2023-05-21T05:44:13.499Z,90.55
2023-05-21T05:46:42.635Z,90.38
2023-05-21T05:49:11.899Z,89.70
2023-05-21T05:51:42.022Z,89.43
2023-05-21T05:54:10.899Z,88.66
2023-05-21T05:56:40.506Z,88.04
2023-05-21T05:59:09.633Z,87.43
2023-05-21T06:01:40.436Z,86.83
2023-05-21T06:04:09.233Z,85.95
2023-05-21T06:06:38.233Z,85.13
2023-05-21T06:09:07.537Z,84.86
2023-05-21T06:11:37.032Z,84.62
2023-05-21T06:14:05.929Z,83.73
2023-05-21T06:16:35.793Z,82.97
2023-05-21T06:19:05.367Z,82.06
2023-05-21T06:21:34.739Z,82.09
2023-05-21T06:24:06.368Z,81.03
2023-05-21T06:26:35.392Z,80.99
2023-05-21T06:29:04.906Z,80.14
2023-05-21T06:31:34.612Z,78.99
2023-05-21T06:34:05.662Z,78.62
2023-05-21T06:36:35.559Z,78.33
2023-05-21T06:39:04.800Z,78.19
2023-05-21T06:41:34.170Z,77.88
2023-05-21T06:44:07.249Z,77.83
2023-05-21T06:47:01.051Z,77.32
2023-05-21T06:49:30.242Z,77.04
2023-05-21T06:51:59.234Z,76.92
2023-05-21T06:54:29.634Z,76.62
2023-05-21T06:56:58.873Z,75.81
2023-05-21T06:59:27.735Z,75.64
2023-05-21T07:01:57.380Z,75.25
2023-05-21T07:04:26.410Z,74.32
2023-05-21T07:06:56.656Z,74.35
2023-05-21T07:09:26.508Z,74.36
2023-05-21T07:11:55.691Z,74.67
2023-05-21T07:14:27.183Z,74.09
2023-05-21T07:16:56.271Z,74.28
2023-05-21T07:19:25.046Z,74.23
2023-05-21T07:21:53.776Z,73.43
2023-05-21T07:24:22.975Z,74.17
2023-05-21T07:26:52.526Z,74.66
2023-05-21T07:29:22.252Z,74.83
2023-05-21T07:31:51.507Z,74.24
2023-05-21T07:34:22.546Z,75.03
2023-05-21T07:36:51.450Z,74.92
2023-05-21T07:39:21.451Z,74.81
2023-05-21T07:41:51.471Z,74.67
2023-05-21T07:44:21.393Z,75.08
2023-05-21T07:46:52.327Z,74.78
2023-05-21T07:49:23.698Z,73.73
2023-05-21T07:51:55.758Z,73.87
2023-05-21T07:54:25.853Z,72.52
2023-05-21T07:56:58.973Z,72.56
2023-05-21T07:59:48.858Z,72.31
2023-05-21T08:02:19.123Z,72.51
2023-05-21T08:04:50.685Z,72.72
2023-05-21T08:07:20.722Z,72.00
2023-05-21T08:09:52.121Z,72.59
2023-05-21T08:12:21.266Z,72.48
2023-05-21T08:14:51.918Z,71.45
2023-05-21T08:17:21.325Z,70.50
2023-05-21T08:19:51.437Z,70.02
2023-05-21T08:22:20.834Z,70.07
2023-05-21T08:24:51.772Z,69.00
2023-05-21T08:27:22.577Z,68.85
2023-05-21T08:29:51.585Z,68.81
2023-05-21T08:32:23.504Z,68.39
2023-05-21T08:34:54.182Z,68.36
2023-05-21T08:37:35.329Z,67.65
2023-05-21T08:40:20.254Z,67.73
2023-05-21T08:42:50.852Z,66.34
2023-05-21T08:45:38.814Z,65.82
2023-05-21T08:48:09.935Z,66.32
2023-05-21T08:50:39.360Z,66.55
2023-05-21T08:53:24.132Z,66.43
2023-05-21T08:55:58.048Z,66.14
2023-05-21T08:58:34.902Z,66.80
2023-05-21T09:01:06.690Z,66.58
2023-05-21T09:03:39.903Z,65.82
2023-05-21T09:06:12.514Z,65.27
2023-05-21T09:08:46.475Z,65.29
2023-05-21T09:11:39.290Z,63.60
2023-05-21T09:14:09.819Z,64.06
2023-05-21T09:17:03.447Z,64.12
2023-05-21T09:19:33.121Z,64.15
2023-05-21T09:22:04.199Z,64.59
2023-05-21T09:24:36.054Z,63.38
2023-05-21T09:27:08.970Z,63.07
2023-05-21T09:29:38.726Z,63.06
2023-05-21T09:32:10.447Z,62.11
2023-05-21T09:34:41.893Z,61.50
2023-05-21T09:37:23.704Z,61.38
2023-05-21T09:39:56.363Z,61.45
2023-05-21T09:42:25.047Z,61.37
2023-05-21T09:44:54.089Z,60.79
2023-05-21T09:47:23.266Z,60.35
2023-05-21T09:49:52.331Z,60.43
2023-05-21T09:52:26.302Z,59.51
2023-05-21T09:54:55.451Z,59.09
2023-05-21T09:57:25.954Z,59.09
2023-05-21T09:59:54.982Z,58.71
2023-05-21T10:02:24.999Z,58.66
2023-05-21T10:04:56.730Z,58.63
2023-05-21T10:07:26.674Z,58.38
2023-05-21T10:09:57.395Z,58.34
2023-05-21T10:12:26.599Z,58.27
2023-05-21T10:15:04.492Z,57.95
2023-05-21T10:17:33.535Z,57.30
2023-05-21T10:20:03.951Z,56.90
2023-05-21T10:22:33.192Z,56.44
2023-05-21T10:25:04.079Z,56.35
2023-05-21T10:27:33.138Z,54.87
2023-05-21T10:30:03.060Z,55.19
2023-05-21T10:32:32.566Z,55.41
2023-05-21T10:35:02.979Z,55.63
2023-05-21T10:37:32.070Z,55.61
2023-05-21T10:40:01.271Z,55.76
2023-05-21T10:42:33.636Z,55.63
2023-05-21T10:45:21.071Z,55.15
2023-05-21T10:48:05.859Z,55.42
2023-05-21T10:51:05.349Z,55.04
2023-05-21T10:54:05.828Z,55.44
2023-05-21T10:56:43.694Z,54.90
2023-05-21T10:59:22.554Z,55.89
2023-05-21T11:01:53.797Z,55.22
2023-05-21T11:04:24.223Z,54.60
2023-05-21T11:06:53.408Z,54.55
2023-05-21T11:09:22.472Z,54.88
2023-05-21T11:11:52.888Z,54.20
2023-05-21T11:14:37.257Z,53.89
2023-05-21T11:17:16.754Z,53.83
2023-05-21T11:19:48.657Z,53.10
2023-05-21T11:22:22.537Z,53.10
2023-05-21T11:24:52.880Z,53.33
2023-05-21T11:27:32.415Z,53.45
2023-05-21T11:30:11.490Z,52.80
2023-05-21T11:32:41.676Z,53.41
2023-05-21T11:35:14.654Z,53.23
2023-05-21T11:37:46.614Z,52.78
2023-05-21T11:40:26.434Z,52.97
2023-05-21T11:42:56.674Z,52.25
2023-05-21T11:45:31.844Z,52.46
2023-05-21T11:48:01.491Z,53.08
2023-05-21T11:50:32.472Z,52.48
2023-05-21T11:53:01.155Z,51.75
2023-05-21T11:55:30.653Z,51.54
2023-05-21T11:57:59.694Z,51.10
2023-05-21T12:00:28.560Z,50.86
2023-05-21T12:02:58.077Z,51.60
2023-05-21T12:05:27.759Z,50.31
2023-05-21T12:07:57.074Z,49.47
2023-05-21T12:10:26.055Z,49.29
2023-05-21T12:12:57.492Z,49.55
2023-05-21T12:15:27.780Z,49.67
2023-05-21T12:17:58.152Z,48.77
2023-05-21T12:20:28.800Z,49.31
2023-05-21T12:22:58.185Z,48.00
2023-05-21T12:25:28.301Z,47.14
2023-05-21T12:27:59.119Z,47.19
2023-05-21T12:30:29.041Z,47.37
2023-05-21T12:33:00.938Z,47.43
2023-05-21T12:35:31.184Z,47.25
2023-05-21T12:38:04.230Z,47.19
2023-05-21T12:40:40.695Z,47.36
2023-05-21T12:43:09.908Z,46.70
2023-05-21T12:45:40.028Z,47.02
2023-05-21T12:48:09.340Z,46.46
2023-05-21T12:50:42.497Z,46.04
2023-05-21T12:53:12.644Z,46.47
2023-05-21T12:55:41.718Z,46.20
2023-05-21T12:58:14.618Z,46.18
2023-05-21T13:00:44.404Z,46.56
2023-05-21T13:03:14.777Z,45.82
2023-05-21T13:05:43.721Z,45.65
2023-05-21T13:08:14.876Z,45.77
2023-05-21T13:10:43.958Z,46.05
2023-05-21T13:13:12.954Z,46.01
2023-05-21T13:15:42.078Z,45.75
2023-05-21T13:18:12.722Z,45.24
2023-05-21T13:20:41.887Z,45.18
2023-05-21T13:23:11.831Z,45.58
2023-05-21T13:25:41.128Z,45.47
2023-05-21T13:28:11.025Z,44.53
2023-05-21T13:30:40.279Z,44.72
2023-05-21T13:33:09.815Z,45.22
2023-05-21T13:35:39.316Z,45.18
2023-05-21T13:38:08.134Z,45.20
2023-05-21T13:40:38.882Z,45.28
2023-05-21T13:43:08.053Z,45.20
2023-05-21T13:45:37.236Z,44.38
2023-05-21T13:48:07.441Z,44.14
2023-05-21T13:50:36.775Z,43.70
2023-05-21T13:53:05.894Z,43.51
2023-05-21T13:55:34.945Z,42.96
2023-05-21T13:58:04.476Z,43.63
2023-05-21T14:00:33.678Z,43.29
2023-05-21T14:03:02.764Z,43.43
2023-05-21T14:05:31.757Z,43.35
2023-05-21T14:08:00.624Z,44.25
2023-05-21T14:10:29.718Z,43.53
2023-05-21T14:13:07.498Z,43.28
2023-05-21T14:15:45.242Z,43.98
2023-05-21T14:18:14.002Z,43.16
2023-05-21T14:20:43.015Z,43.75
2023-05-21T14:23:12.494Z,43.84
2023-05-21T14:25:43.337Z,43.79
2023-05-21T14:28:12.754Z,43.68
2023-05-21T14:30:42.254Z,44.06
2023-05-21T14:33:14.099Z,43.83
2023-05-21T14:35:44.754Z,43.57
2023-05-21T14:38:14.800Z,43.03
2023-05-21T14:40:44.096Z,43.34
2023-05-21T14:43:13.065Z,43.48
2023-05-21T14:45:43.077Z,43.68
2023-05-21T14:48:12.820Z,43.35
2023-05-21T14:50:41.770Z,43.26
2023-05-21T14:53:12.526Z,43.29
2023-05-21T14:55:41.918Z,43.78
2023-05-21T14:58:11.127Z,43.47
2023-05-21T15:00:41.849Z,43.45
2023-05-21T15:03:10.986Z,43.45
2023-05-21T15:05:40.141Z,43.27
2023-05-21T15:08:11.586Z,43.26
2023-05-21T15:10:40.766Z,43.55
2023-05-21T15:13:09.687Z,43.37
2023-05-21T15:15:39.026Z,43.53
2023-05-21T15:18:08.410Z,43.01
2023-05-21T15:20:37.568Z,43.16
2023-05-21T15:23:16.078Z,43.22
2023-05-21T15:25:46.607Z,43.61
2023-05-21T15:28:15.887Z,43.11
2023-05-21T15:30:44.507Z,43.23
2023-05-21T15:33:13.492Z,42.85
2023-05-21T15:35:42.800Z,42.03
2023-05-21T15:38:12.415Z,42.79
2023-05-21T15:40:44.387Z,42.97
2023-05-21T15:43:13.273Z,42.72
2023-05-21T15:45:42.700Z,42.68
2023-05-21T15:48:13.046Z,42.01
2023-05-21T15:50:42.222Z,42.17
2023-05-21T15:53:11.577Z,41.59
2023-05-21T15:55:40.476Z,41.72
2023-05-21T15:58:09.500Z,42.11
2023-05-21T16:00:38.469Z,42.32
2023-05-21T16:03:07.429Z,41.96
2023-05-21T16:05:36.702Z,41.54
2023-05-21T16:08:06.059Z,41.09
2023-05-21T16:10:35.261Z,41.32
2023-05-21T16:13:04.552Z,41.11
2023-05-21T16:15:33.533Z,41.13
2023-05-21T16:18:02.794Z,41.41
2023-05-21T16:20:32.969Z,41.78
2023-05-21T16:23:01.851Z,42.08
2023-05-21T16:25:30.961Z,41.89
2023-05-21T16:28:00.045Z,41.75
2023-05-21T16:30:28.818Z,41.73
2023-05-21T16:32:58.161Z,42.24
2023-05-21T16:35:27.232Z,42.58
2023-05-21T16:37:57.651Z,42.58
2023-05-21T16:40:27.250Z,42.04
2023-05-21T16:42:56.152Z,42.13
2023-05-21T16:45:25.251Z,42.54
2023-05-21T16:47:54.430Z,42.75
2023-05-21T16:50:23.632Z,43.05
2023-05-21T16:52:52.529Z,43.11
2023-05-21T16:55:21.514Z,43.36
2023-05-21T16:57:50.712Z,43.56
2023-05-21T17:00:20.939Z,43.44
2023-05-21T17:02:50.101Z,43.62
2023-05-21T17:05:19.135Z,43.81
2023-05-21T17:07:48.959Z,43.97
2023-05-21T17:10:19.599Z,44.24
2023-05-21T17:12:48.774Z,44.50
2023-05-21T17:15:17.961Z,44.51
2023-05-21T17:17:47.021Z,44.73
2023-05-21T17:20:16.378Z,45.08
2023-05-21T17:22:47.091Z,45.17
2023-05-21T17:25:16.097Z,45.43
2023-05-21T17:27:45.096Z,45.45
2023-05-21T17:30:14.181Z,45.61
2023-05-21T17:32:44.568Z,45.69
2023-05-21T17:35:13.715Z,45.77
2023-05-21T17:37:42.901Z,45.90
2023-05-21T17:40:12.198Z,46.01
2023-05-21T17:42:41.295Z,46.03
2023-05-21T17:45:11.232Z,45.88
2023-05-21T17:47:40.434Z,45.93
2023-05-21T17:50:10.542Z,45.93
2023-05-21T17:52:40.132Z,45.87
2023-05-21T17:55:09.956Z,46.14
2023-05-21T17:57:38.931Z,46.37
2023-05-21T18:00:09.466Z,46.49
2023-05-21T18:02:41.406Z,46.71
2023-05-21T18:05:10.466Z,46.89
2023-05-21T18:07:40.552Z,47.13
2023-05-21T18:10:10.042Z,47.14
2023-05-21T18:12:39.252Z,47.11
2023-05-21T18:15:10.171Z,47.60
2023-05-21T18:17:39.994Z,47.94
2023-05-21T18:20:10.107Z,48.14
2023-05-21T18:22:40.954Z,48.50
2023-05-21T18:25:10.673Z,48.54
2023-05-21T18:27:39.852Z,49.15
2023-05-21T18:30:09.803Z,49.25
2023-05-21T18:32:40.188Z,49.85
2023-05-21T18:35:12.410Z,50.04
2023-05-21T18:37:45.049Z,50.42
2023-05-21T18:40:15.282Z,50.75
2023-05-21T18:42:43.962Z,51.57
2023-05-21T18:45:14.171Z,51.95
2023-05-21T18:47:43.615Z,52.43
2023-05-21T18:50:14.525Z,52.99
2023-05-21T18:52:43.810Z,53.38
2023-05-21T18:55:13.447Z,53.78
2023-05-21T18:57:42.236Z,54.29
2023-05-21T19:00:11.935Z,54.43
2023-05-21T19:02:41.616Z,54.87
2023-05-21T19:05:11.564Z,55.09
2023-05-21T19:07:42.074Z,55.52
2023-05-21T19:10:12.949Z,55.77
2023-05-21T19:12:44.395Z,56.08
2023-05-21T19:15:14.064Z,56.48
2023-05-21T19:17:43.781Z,56.73
2023-05-21T19:20:23.476Z,56.87
2023-05-21T19:22:53.251Z,57.15
2023-05-21T19:25:22.983Z,57.47
2023-05-21T19:27:53.768Z,57.68
2023-05-21T19:30:22.767Z,57.78
2023-05-21T19:32:52.485Z,58.09
2023-05-21T19:35:22.938Z,58.44
2023-05-21T19:37:52.100Z,58.64
2023-05-21T19:40:23.375Z,58.80
2023-05-21T19:42:52.750Z,58.97
2023-05-21T19:45:22.996Z,59.28
2023-05-21T19:47:52.638Z,59.34
2023-05-21T19:50:22.319Z,59.55
2023-05-21T19:52:51.693Z,59.83
2023-05-21T19:55:21.276Z,59.98
2023-05-21T19:57:50.975Z,60.29
2023-05-21T20:00:23.214Z,60.40
2023-05-21T20:02:53.009Z,60.71
2023-05-21T20:05:22.286Z,60.91
2023-05-21T20:07:51.516Z,61.19
2023-05-21T20:10:20.683Z,61.27
2023-05-21T20:12:49.676Z,61.42
2023-05-21T20:15:18.995Z,61.56
2023-05-21T20:17:50.901Z,61.82
2023-05-21T20:20:23.415Z,61.92
2023-05-21T20:22:52.614Z,62.03
2023-05-21T20:25:22.308Z,62.36
2023-05-21T20:27:51.311Z,62.37
2023-05-21T20:30:20.609Z,62.62
2023-05-21T20:32:50.382Z,62.88
2023-05-21T20:35:19.638Z,63.03
2023-05-21T20:37:49.013Z,63.21
2023-05-21T20:40:19.802Z,63.55
2023-05-21T20:42:51.028Z,63.83
2023-05-21T20:45:21.351Z,64.05
2023-05-21T20:47:50.388Z,64.31
2023-05-21T20:50:22.127Z,64.37
2023-05-21T20:52:52.436Z,64.75
2023-05-21T20:55:21.809Z,64.78
2023-05-21T20:57:51.518Z,65.01
2023-05-21T21:00:21.198Z,65.27
2023-05-21T21:02:50.856Z,65.65
2023-05-21T21:05:20.552Z,65.67
2023-05-21T21:07:49.424Z,66.05
2023-05-21T21:10:18.923Z,66.08
2023-05-21T21:12:48.230Z,66.32
2023-05-21T21:15:17.323Z,66.55
2023-05-21T21:17:46.209Z,66.67
2023-05-21T21:20:17.790Z,66.95
2023-05-21T21:22:46.665Z,67.22
2023-05-21T21:25:16.844Z,67.40
2023-05-21T21:27:45.992Z,67.84
2023-05-21T21:30:15.141Z,67.90
2023-05-21T21:32:44.119Z,68.30
2023-05-21T21:35:12.979Z,68.37
2023-05-21T21:37:41.950Z,68.56
2023-05-21T21:40:11.288Z,68.78
2023-05-21T21:42:40.053Z,69.04
2023-05-21T21:45:09.867Z,69.31
2023-05-21T21:47:38.612Z,69.64
2023-05-21T21:50:08.573Z,69.91
2023-05-21T21:52:41.034Z,70.20
2023-05-21T21:55:11.039Z,70.48
2023-05-21T21:57:40.049Z,70.82
2023-05-21T22:00:17.952Z,71.06
2023-05-21T22:02:47.092Z,71.44
2023-05-21T22:05:16.320Z,71.69
2023-05-21T22:07:48.520Z,71.99
2023-05-21T22:10:18.434Z,72.27
2023-05-21T22:12:47.637Z,72.51
2023-05-21T22:15:23.458Z,72.81
2023-05-21T22:17:52.627Z,73.04
2023-05-21T22:20:25.719Z,73.39
2023-05-21T22:22:55.414Z,73.68
2023-05-21T22:25:24.971Z,73.99
2023-05-21T22:27:53.773Z,74.37
2023-05-21T22:30:23.157Z,74.70
2023-05-21T22:32:52.088Z,74.84
2023-05-21T22:35:21.043Z,75.14
2023-05-21T22:37:49.735Z,75.51
2023-05-21T22:40:19.134Z,75.64
2023-05-21T22:42:47.935Z,75.76
2023-05-21T22:45:17.216Z,75.94
2023-05-21T22:47:46.084Z,76.19
2023-05-21T22:50:17.163Z,76.58
2023-05-21T22:52:45.982Z,76.80
2023-05-21T22:55:17.060Z,77.05
2023-05-21T22:57:45.775Z,77.07
2023-05-21T23:00:14.907Z,77.48
2023-05-21T23:02:43.627Z,77.72
2023-05-21T23:05:12.914Z,77.76
2023-05-21T23:07:41.972Z,78.07
2023-05-21T23:10:11.271Z,78.32
2023-05-21T23:12:41.387Z,78.53
2023-05-21T23:15:11.076Z,78.77
2023-05-21T23:17:40.815Z,79.12
2023-05-21T23:20:10.405Z,79.35
2023-05-21T23:22:39.091Z,79.56
2023-05-21T23:25:08.895Z,79.79
2023-05-21T23:27:38.492Z,80.01
2023-05-21T23:30:08.168Z,80.32
2023-05-21T23:32:37.138Z,80.47
2023-05-21T23:35:08.106Z,80.64
2023-05-21T23:37:36.785Z,80.73
2023-05-21T23:40:06.647Z,80.82
2023-05-21T23:42:36.052Z,81.03
2023-05-21T23:45:05.035Z,81.03
2023-05-21T23:47:35.260Z,81.18
2023-05-21T23:50:04.756Z,81.15
2023-05-21T23:52:33.367Z,81.24
2023-05-21T23:55:02.571Z,81.58
2023-05-21T23:57:31.319Z,81.66
